sensor_id;sensor_type;location;lat;lon;timestamp;pressure;altitude;pressure_sealevel;temperature;humidity
23899;BME280;20544;50.018;20.010;2023-12-04T00:02:09;99421.87;;;-3.30;100.00
23899;BME280;20544;50.018;20.010;2023-12-04T00:05:26;99423.69;;;-3.32;100.00
23899;BME280;20544;50.018;20.010;2023-12-04T00:08:43;99421.31;;;-3.37;100.00
23899;BME280;20544;50.018;20.010;2023-12-04T00:12:00;99425.52;;;-3.34;100.00
23899;BME280;20544;50.018;20.010;2023-12-04T00:15:19;99425.59;;;-3.36;100.00
23899;BME280;20544;50.018;20.010;2023-12-04T00:18:37;99428.59;;;-3.44;100.00
23899;BME280;20544;50.018;20.010;2023-12-04T00:21:54;99424.30;;;-3.45;100.00
23899;BME280;20544;50.018;20.010;2023-12-04T00:25:11;99420.03;;;-3.46;100.00
23899;BME280;20544;50.018;20.010;2023-12-04T00:28:27;99416.23;;;-3.56;100.00
23899;BME280;20544;50.018;20.010;2023-12-04T00:31:45;99422.55;;;-3.62;100.00
23899;BME280;20544;50.018;20.010;2023-12-04T00:35:01;99423.40;;;-3.61;100.00
23899;BME280;20544;50.018;20.010;2023-12-04T00:38:19;99419.13;;;-3.62;100.00
23899;BME280;20544;50.018;20.010;2023-12-04T00:41:35;99423.45;;;-3.63;100.00
23899;BME280;20544;50.018;20.010;2023-12-04T00:44:52;99423.31;;;-3.60;100.00
23899;BME280;20544;50.018;20.010;2023-12-04T00:48:09;99423.40;;;-3.61;100.00
23899;BME280;20544;50.018;20.010;2023-12-04T00:51:26;99426.21;;;-3.66;100.00
23899;BME280;20544;50.018;20.010;2023-12-04T00:54:43;99428.03;;;-3.68;100.00
23899;BME280;20544;50.018;20.010;2023-12-04T00:58:00;99430.23;;;-3.60;100.00
23899;BME280;20544;50.018;20.010;2023-12-04T01:01:17;99433.30;;;-3.52;100.00
23899;BME280;20544;50.018;20.010;2023-12-04T01:04:34;99432.31;;;-3.49;100.00
23899;BME280;20544;50.018;20.010;2023-12-04T01:07:53;99432.83;;;-3.60;100.00
23899;BME280;20544;50.018;20.010;2023-12-04T01:11:10;99431.70;;;-3.72;100.00
23899;BME280;20544;50.018;20.010;2023-12-04T01:14:29;99430.09;;;-3.75;100.00
23899;BME280;20544;50.018;20.010;2023-12-04T01:17:47;99430.92;;;-3.74;100.00
23899;BME280;20544;50.018;20.010;2023-12-04T01:21:05;99432.77;;;-3.76;100.00
23899;BME280;20544;50.018;20.010;2023-12-04T01:24:22;99427.94;;;-3.84;100.00
23899;BME280;20544;50.018;20.010;2023-12-04T01:27:39;99425.88;;;-3.95;100.00
23899;BME280;20544;50.018;20.010;2023-12-04T01:30:57;99423.02;;;-4.08;100.00
23899;BME280;20544;50.018;20.010;2023-12-04T01:34:13;99413.10;;;-4.17;100.00
23899;BME280;20544;50.018;20.010;2023-12-04T01:37:30;99428.78;;;-4.20;100.00
23899;BME280;20544;50.018;20.010;2023-12-04T01:40:47;99418.50;;;-4.22;100.00
23899;BME280;20544;50.018;20.010;2023-12-04T01:44:04;99414.50;;;-4.29;100.00
23899;BME280;20544;50.018;20.010;2023-12-04T01:47:21;99406.61;;;-4.26;100.00
23899;BME280;20544;50.018;20.010;2023-12-04T01:50:39;99409.41;;;-4.30;100.00
23899;BME280;20544;50.018;20.010;2023-12-04T01:53:59;99406.27;;;-4.37;100.00
23899;BME280;20544;50.018;20.010;2023-12-04T01:57:17;99406.11;;;-4.34;100.00
23899;BME280;20544;50.018;20.010;2023-12-04T02:00:34;99402.54;;;-4.31;100.00
23899;BME280;20544;50.018;20.010;2023-12-04T02:03:51;99404.38;;;-4.33;100.00
23899;BME280;20544;50.018;20.010;2023-12-04T02:07:10;99401.79;;;-4.33;100.00
23899;BME280;20544;50.018;20.010;2023-12-04T02:10:27;99393.86;;;-4.30;100.00
23899;BME280;20544;50.018;20.010;2023-12-04T02:13:44;99398.22;;;-4.31;100.00
23899;BME280;20544;50.018;20.010;2023-12-04T02:17:03;99402.54;;;-4.31;100.00
23899;BME280;20544;50.018;20.010;2023-12-04T02:20:24;99407.02;;;-4.35;100.00
23899;BME280;20544;50.018;20.010;2023-12-04T02:23:51;99412.56;;;-4.24;100.00
23899;BME280;20544;50.018;20.010;2023-12-04T02:27:12;99420.05;;;-4.17;100.00
23899;BME280;20544;50.018;20.010;2023-12-04T02:30:31;99417.05;;;-4.27;100.00
23899;BME280;20544;50.018;20.010;2023-12-04T02:33:52;99417.75;;;-4.43;100.00
23899;BME280;20544;50.018;20.010;2023-12-04T02:37:12;99418.65;;;-4.44;100.00
23899;BME280;20544;50.018;20.010;2023-12-04T02:40:30;99414.05;;;-4.37;100.00
23899;BME280;20544;50.018;20.010;2023-12-04T02:43:46;99416.89;;;-4.24;100.00
23899;BME280;20544;50.018;20.010;2023-12-04T02:47:03;99417.38;;;-4.16;100.00
23899;BME280;20544;50.018;20.010;2023-12-04T02:50:20;99426.55;;;-4.09;100.00
23899;BME280;20544;50.018;20.010;2023-12-04T02:53:36;99423.50;;;-3.99;100.00
23899;BME280;20544;50.018;20.010;2023-12-04T02:56:53;99418.93;;;-3.94;100.00
23899;BME280;20544;50.018;20.010;2023-12-04T03:00:12;99425.80;;;-3.93;100.00
23899;BME280;20544;50.018;20.010;2023-12-04T03:03:29;99425.59;;;-3.88;100.00
23899;BME280;20544;50.018;20.010;2023-12-04T03:06:45;99428.71;;;-3.82;100.00
23899;BME280;20544;50.018;20.010;2023-12-04T03:10:03;99434.51;;;-3.77;100.00
23899;BME280;20544;50.018;20.010;2023-12-04T03:13:20;99433.89;;;-3.82;100.00
23899;BME280;20544;50.018;20.010;2023-12-04T03:16:38;99432.16;;;-3.81;100.00
23899;BME280;20544;50.018;20.010;2023-12-04T03:19:54;99434.41;;;-3.93;100.00
23899;BME280;20544;50.018;20.010;2023-12-04T03:23:12;99441.81;;;-4.02;100.00
23899;BME280;20544;50.018;20.010;2023-12-04T03:26:29;99441.52;;;-3.96;100.00
23899;BME280;20544;50.018;20.010;2023-12-04T03:29:46;99441.89;;;-3.86;100.00
23899;BME280;20544;50.018;20.010;2023-12-04T03:33:03;99442.16;;;-3.74;100.00
23899;BME280;20544;50.018;20.010;2023-12-04T03:36:21;99444.45;;;-3.67;100.00
23899;BME280;20544;50.018;20.010;2023-12-04T03:39:38;99436.80;;;-3.70;100.00
23899;BME280;20544;50.018;20.010;2023-12-04T03:42:55;99445.36;;;-3.68;100.00
23899;BME280;20544;50.018;20.010;2023-12-04T03:46:12;99446.73;;;-3.79;100.00
23899;BME280;20544;50.018;20.010;2023-12-04T03:49:30;99443.44;;;-3.82;100.00
23899;BME280;20544;50.018;20.010;2023-12-04T03:52:46;99448.97;;;-3.90;100.00
23899;BME280;20544;50.018;20.010;2023-12-04T03:56:04;99450.95;;;-3.95;100.00
23899;BME280;20544;50.018;20.010;2023-12-04T03:59:22;99443.33;;;-3.98;100.00
23899;BME280;20544;50.018;20.010;2023-12-04T04:02:41;99448.80;;;-4.04;100.00
23899;BME280;20544;50.018;20.010;2023-12-04T04:05:58;99449.02;;;-4.09;100.00
23899;BME280;20544;50.018;20.010;2023-12-04T04:09:16;99450.16;;;-4.15;100.00
23899;BME280;20544;50.018;20.010;2023-12-04T04:12:33;99456.95;;;-4.12;100.00
23899;BME280;20544;50.018;20.010;2023-12-04T04:15:50;99456.66;;;-4.06;100.00
23899;BME280;20544;50.018;20.010;2023-12-04T04:19:07;99460.08;;;-4.06;100.00
23899;BME280;20544;50.018;20.010;2023-12-04T04:22:24;99460.08;;;-4.06;100.00
23899;BME280;20544;50.018;20.010;2023-12-04T04:25:43;99463.20;;;-3.99;100.00
23899;BME280;20544;50.018;20.010;2023-12-04T04:29:00;99460.86;;;-4.03;100.00
23899;BME280;20544;50.018;20.010;2023-12-04T04:32:17;99463.66;;;-4.08;100.00
23899;BME280;20544;50.018;20.010;2023-12-04T04:35:35;99465.01;;;-4.18;100.00
23899;BME280;20544;50.018;20.010;2023-12-04T04:38:52;99463.41;;;-4.21;100.00
23899;BME280;20544;50.018;20.010;2023-12-04T04:42:09;99459.41;;;-4.28;100.00
23899;BME280;20544;50.018;20.010;2023-12-04T04:45:25;99455.13;;;-4.29;100.00
23899;BME280;20544;50.018;20.010;2023-12-04T04:48:42;99471.58;;;-4.30;100.00
23899;BME280;20544;50.018;20.010;2023-12-04T04:51:59;99472.44;;;-4.30;100.00
23899;BME280;20544;50.018;20.010;2023-12-04T04:55:17;99482.10;;;-4.33;100.00
23899;BME280;20544;50.018;20.010;2023-12-04T04:58:35;99469.69;;;-4.27;100.00
23899;BME280;20544;50.018;20.010;2023-12-04T05:01:52;99469.90;;;-4.31;100.00
23899;BME280;20544;50.018;20.010;2023-12-04T05:05:09;99469.15;;;-4.33;100.00
23899;BME280;20544;50.018;20.010;2023-12-04T05:08:26;99469.97;;;-4.33;100.00
23899;BME280;20544;50.018;20.010;2023-12-04T05:11:43;99471.86;;;-4.36;100.00
23899;BME280;20544;50.018;20.010;2023-12-04T05:14:59;99473.75;;;-4.40;100.00
23899;BME280;20544;50.018;20.010;2023-12-04T05:18:16;99479.91;;;-4.43;100.00
23899;BME280;20544;50.018;20.010;2023-12-04T05:21:33;99477.20;;;-4.40;100.00
23899;BME280;20544;50.018;20.010;2023-12-04T05:24:50;99473.47;;;-4.34;100.00
23899;BME280;20544;50.018;20.010;2023-12-04T05:28:07;99467.38;;;-4.33;100.00
23899;BME280;20544;50.018;20.010;2023-12-04T05:31:26;99461.80;;;-4.24;100.00
23899;BME280;20544;50.018;20.010;2023-12-04T05:34:43;99471.92;;;-4.19;100.00
23899;BME280;20544;50.018;20.010;2023-12-04T05:37:59;99471.80;;;-4.16;100.00
23899;BME280;20544;50.018;20.010;2023-12-04T05:41:18;99467.31;;;-4.12;100.00
23899;BME280;20544;50.018;20.010;2023-12-04T05:44:35;99466.05;;;-4.03;100.00
23899;BME280;20544;50.018;20.010;2023-12-04T05:47:52;99461.77;;;-4.04;100.00
23899;BME280;20544;50.018;20.010;2023-12-04T05:51:09;99464.06;;;-3.98;100.00
23899;BME280;20544;50.018;20.010;2023-12-04T05:54:26;99468.05;;;-3.91;100.00
23899;BME280;20544;50.018;20.010;2023-12-04T05:57:43;99462.88;;;-3.91;100.00
23899;BME280;20544;50.018;20.010;2023-12-04T06:01:00;99468.05;;;-3.91;100.00
23899;BME280;20544;50.018;20.010;2023-12-04T06:04:17;99477.44;;;-3.88;100.00
23899;BME280;20544;50.018;20.010;2023-12-04T06:07:34;99481.63;;;-3.86;100.00
23899;BME280;20544;50.018;20.010;2023-12-04T06:10:51;99485.96;;;-3.86;100.00
23899;BME280;20544;50.018;20.010;2023-12-04T06:14:08;99484.44;;;-3.91;100.00
23899;BME280;20544;50.018;20.010;2023-12-04T06:17:25;99477.84;;;-3.79;100.00
23899;BME280;20544;50.018;20.010;2023-12-04T06:20:41;99473.32;;;-3.75;100.00
23899;BME280;20544;50.018;20.010;2023-12-04T06:23:59;99487.27;;;-3.78;100.00
23899;BME280;20544;50.018;20.010;2023-12-04T06:27:19;99491.47;;;-3.75;100.00
23899;BME280;20544;50.018;20.010;2023-12-04T06:30:38;99493.32;;;-3.77;100.00
23899;BME280;20544;50.018;20.010;2023-12-04T06:33:56;99482.66;;;-3.71;100.00
23899;BME280;20544;50.018;20.010;2023-12-04T06:37:14;99492.25;;;-3.73;100.00
23899;BME280;20544;50.018;20.010;2023-12-04T06:40:33;99478.38;;;-3.72;100.00
23899;BME280;20544;50.018;20.010;2023-12-04T06:43:51;99481.75;;;-3.70;100.00
23899;BME280;20544;50.018;20.010;2023-12-04T06:47:10;99473.03;;;-3.69;100.00
23899;BME280;20544;50.018;20.010;2023-12-04T06:50:28;99476.48;;;-3.68;100.00
23899;BME280;20544;50.018;20.010;2023-12-04T06:53:45;99481.75;;;-3.70;100.00
23899;BME280;20544;50.018;20.010;2023-12-04T06:57:02;99480.89;;;-3.70;100.00
23899;BME280;20544;50.018;20.010;2023-12-04T07:00:20;99490.35;;;-3.69;100.00
23899;BME280;20544;50.018;20.010;2023-12-04T07:03:38;99486.77;;;-3.67;100.00
23899;BME280;20544;50.018;20.010;2023-12-04T07:06:56;99480.59;;;-3.64;100.00
23899;BME280;20544;50.018;20.010;2023-12-04T07:10:14;99489.28;;;-3.65;100.00
23899;BME280;20544;50.018;20.010;2023-12-04T07:13:31;99500.35;;;-3.62;100.00
23899;BME280;20544;50.018;20.010;2023-12-04T07:16:48;99495.94;;;-3.60;100.00
23899;BME280;20544;50.018;20.010;2023-12-04T07:20:06;99493.88;;;-3.53;100.00
23899;BME280;20544;50.018;20.010;2023-12-04T07:23:24;99486.57;;;-3.45;100.00
23899;BME280;20544;50.018;20.010;2023-12-04T07:26:40;99492.23;;;-3.36;100.00
23899;BME280;20544;50.018;20.010;2023-12-04T07:29:57;99487.78;;;-3.34;100.00
23899;BME280;20544;50.018;20.010;2023-12-04T07:33:14;99489.47;;;-3.33;100.00
23899;BME280;20544;50.018;20.010;2023-12-04T07:36:32;99490.98;;;-3.29;100.00
23899;BME280;20544;50.018;20.010;2023-12-04T07:39:49;99495.05;;;-3.23;100.00
23899;BME280;20544;50.018;20.010;2023-12-04T07:43:06;99485.27;;;-3.18;100.00
23899;BME280;20544;50.018;20.010;2023-12-04T07:46:23;99484.05;;;-3.11;100.00
23899;BME280;20544;50.018;20.010;2023-12-04T07:49:40;99489.77;;;-3.04;100.00
23899;BME280;20544;50.018;20.010;2023-12-04T07:52:57;99489.62;;;-3.01;100.00
23899;BME280;20544;50.018;20.010;2023-12-04T07:56:15;99496.02;;;-2.91;100.00
23899;BME280;20544;50.018;20.010;2023-12-04T07:59:32;99496.52;;;-2.84;100.00
23899;BME280;20544;50.018;20.010;2023-12-04T08:02:48;99498.58;;;-2.73;100.00
23899;BME280;20544;50.018;20.010;2023-12-04T08:06:06;99503.09;;;-2.44;100.00
23899;BME280;20544;50.018;20.010;2023-12-04T08:09:23;99499.66;;;-2.28;100.00
23899;BME280;20544;50.018;20.010;2023-12-04T08:12:39;99504.96;;;-2.14;100.00
23899;BME280;20544;50.018;20.010;2023-12-04T08:15:57;99504.79;;;-1.95;100.00
23899;BME280;20544;50.018;20.010;2023-12-04T08:19:15;99495.39;;;-1.81;100.00
23899;BME280;20544;50.018;20.010;2023-12-04T08:22:33;99499.14;;;-1.71;100.00
23899;BME280;20544;50.018;20.010;2023-12-04T08:25:50;99492.75;;;-1.49;100.00
23899;BME280;20544;50.018;20.010;2023-12-04T08:29:08;99498.84;;;-1.34;100.00
23899;BME280;20544;50.018;20.010;2023-12-04T08:32:26;99506.11;;;-1.25;100.00
23899;BME280;20544;50.018;20.010;2023-12-04T08:35:43;99500.73;;;-1.22;100.00
23899;BME280;20544;50.018;20.010;2023-12-04T08:39:00;99499.41;;;-1.29;100.00
23899;BME280;20544;50.018;20.010;2023-12-04T08:42:17;99500.88;;;-1.39;100.00
23899;BME280;20544;50.018;20.010;2023-12-04T08:45:34;99508.05;;;-1.28;100.00
23899;BME280;20544;50.018;20.010;2023-12-04T08:48:50;99503.69;;;-1.28;100.00
23899;BME280;20544;50.018;20.010;2023-12-04T08:52:08;99516.20;;;-1.35;100.00
23899;BME280;20544;50.018;20.010;2023-12-04T08:55:25;99523.60;;;-1.27;100.00
23899;BME280;20544;50.018;20.010;2023-12-04T08:58:42;99515.50;;;-1.22;100.00
23899;BME280;20544;50.018;20.010;2023-12-04T09:02:00;99509.47;;;-1.23;100.00
23899;BME280;20544;50.018;20.010;2023-12-04T09:05:19;99525.09;;;-1.23;100.00
23899;BME280;20544;50.018;20.010;2023-12-04T09:08:36;99513.20;;;-1.12;100.00
23899;BME280;20544;50.018;20.010;2023-12-04T09:11:55;99512.55;;;-1.16;100.00
23899;BME280;20544;50.018;20.010;2023-12-04T09:15:12;99519.48;;;-0.86;100.00
23899;BME280;20544;50.018;20.010;2023-12-04T09:18:29;99519.13;;;-0.94;100.00
23899;BME280;20544;50.018;20.010;2023-12-04T09:21:46;99505.53;;;-1.00;100.00
23899;BME280;20544;50.018;20.010;2023-12-04T09:25:06;99507.84;;;-1.09;100.00
23899;BME280;20544;50.018;20.010;2023-12-04T09:28:23;99505.80;;;-1.04;100.00
23899;BME280;20544;50.018;20.010;2023-12-04T09:31:40;99505.70;;;-1.03;100.00
23899;BME280;20544;50.018;20.010;2023-12-04T09:34:57;99497.36;;;-0.93;100.00
23899;BME280;20544;50.018;20.010;2023-12-04T09:38:14;99492.42;;;-0.98;100.00
23899;BME280;20544;50.018;20.010;2023-12-04T09:41:31;99487.87;;;-0.94;100.00
23899;BME280;20544;50.018;20.010;2023-12-04T09:44:49;99490.83;;;-0.86;100.00
23899;BME280;20544;50.018;20.010;2023-12-04T09:48:08;99491.86;;;-0.89;100.00
23899;BME280;20544;50.018;20.010;2023-12-04T09:51:26;99488.16;;;-0.70;100.00
23899;BME280;20544;50.018;20.010;2023-12-04T09:54:44;99480.72;;;-0.62;100.00
23899;BME280;20544;50.018;20.010;2023-12-04T09:58:01;99474.58;;;-0.61;100.00
23899;BME280;20544;50.018;20.010;2023-12-04T10:01:18;99470.20;;;-0.60;100.00
23899;BME280;20544;50.018;20.010;2023-12-04T10:04:36;99465.36;;;-0.52;100.00
23899;BME280;20544;50.018;20.010;2023-12-04T10:07:53;99456.62;;;-0.51;100.00
23899;BME280;20544;50.018;20.010;2023-12-04T10:11:10;99457.23;;;-0.47;100.00
23899;BME280;20544;50.018;20.010;2023-12-04T10:14:28;99439.95;;;-0.48;100.00
23899;BME280;20544;50.018;20.010;2023-12-04T10:17:45;99438.98;;;-0.47;100.00
23899;BME280;20544;50.018;20.010;2023-12-04T10:21:04;99434.70;;;-0.34;100.00
23899;BME280;20544;50.018;20.010;2023-12-04T10:24:36;99435.23;;;-0.29;100.00
23899;BME280;20544;50.018;20.010;2023-12-04T10:27:54;99428.45;;;-0.31;100.00
23899;BME280;20544;50.018;20.010;2023-12-04T10:31:11;99430.54;;;-0.09;100.00
23899;BME280;20544;50.018;20.010;2023-12-04T10:34:29;99430.56;;;-0.24;100.00
23899;BME280;20544;50.018;20.010;2023-12-04T10:37:57;99430.13;;;-0.30;100.00
23899;BME280;20544;50.018;20.010;2023-12-04T10:41:15;99431.91;;;-0.31;100.00
23899;BME280;20544;50.018;20.010;2023-12-04T10:44:33;99428.94;;;0.03;100.00
23899;BME280;20544;50.018;20.010;2023-12-04T10:47:52;99424.57;;;-0.11;100.00
23899;BME280;20544;50.018;20.010;2023-12-04T10:51:09;99423.15;;;-0.03;100.00
23899;BME280;20544;50.018;20.010;2023-12-04T10:54:26;99412.88;;;-0.19;100.00
23899;BME280;20544;50.018;20.010;2023-12-04T10:57:45;99406.77;;;-0.32;100.00
23899;BME280;20544;50.018;20.010;2023-12-04T11:01:03;99410.66;;;-0.25;100.00
23899;BME280;20544;50.018;20.010;2023-12-04T11:04:23;99393.63;;;-0.30;100.00
23899;BME280;20544;50.018;20.010;2023-12-04T11:07:44;99405.84;;;-0.04;100.00
23899;BME280;20544;50.018;20.010;2023-12-04T11:11:05;99390.03;;;-0.15;100.00
23899;BME280;20544;50.018;20.010;2023-12-04T11:14:27;99400.66;;;0.09;100.00
23899;BME280;20544;50.018;20.010;2023-12-04T11:17:48;99394.36;;;0.26;100.00
23899;BME280;20544;50.018;20.010;2023-12-04T11:21:10;99378.81;;;0.38;100.00
23899;BME280;20544;50.018;20.010;2023-12-04T11:24:28;99383.11;;;0.52;100.00
23899;BME280;20544;50.018;20.010;2023-12-04T11:27:46;99389.00;;;0.15;100.00
23899;BME280;20544;50.018;20.010;2023-12-04T11:31:03;99381.49;;;0.23;100.00
23899;BME280;20544;50.018;20.010;2023-12-04T11:34:23;99389.98;;;-0.01;100.00
23899;BME280;20544;50.018;20.010;2023-12-04T11:37:41;99377.23;;;-0.05;100.00
23899;BME280;20544;50.018;20.010;2023-12-04T11:41:02;99374.41;;;0.25;100.00
23899;BME280;20544;50.018;20.010;2023-12-04T11:44:30;99370.82;;;0.13;100.00
23899;BME280;20544;50.018;20.010;2023-12-04T11:47:56;99368.72;;;0.06;100.00
23899;BME280;20544;50.018;20.010;2023-12-04T11:51:16;99363.09;;;0.12;100.00
23899;BME280;20544;50.018;20.010;2023-12-04T11:55:00;99358.16;;;-0.06;100.00
23899;BME280;20544;50.018;20.010;2023-12-04T11:58:18;99355.01;;;-0.11;100.00
23899;BME280;20544;50.018;20.010;2023-12-04T12:01:37;99350.86;;;-0.01;100.00
23899;BME280;20544;50.018;20.010;2023-12-04T12:04:56;99343.65;;;-0.10;100.00
23899;BME280;20544;50.018;20.010;2023-12-04T12:08:13;99343.08;;;-0.15;100.00
23899;BME280;20544;50.018;20.010;2023-12-04T12:11:31;99342.27;;;-0.15;100.00
23899;BME280;20544;50.018;20.010;2023-12-04T12:14:47;99330.55;;;-0.23;100.00
23899;BME280;20544;50.018;20.010;2023-12-04T12:18:05;99337.09;;;-0.30;100.00
23899;BME280;20544;50.018;20.010;2023-12-04T12:21:22;99327.55;;;-0.44;100.00
23899;BME280;20544;50.018;20.010;2023-12-04T12:24:41;99322.94;;;-0.26;100.00
23899;BME280;20544;50.018;20.010;2023-12-04T12:27:58;99324.22;;;-0.19;100.00
23899;BME280;20544;50.018;20.010;2023-12-04T12:31:18;99328.93;;;-0.11;100.00
23899;BME280;20544;50.018;20.010;2023-12-04T12:34:36;99321.82;;;-0.09;100.00
23899;BME280;20544;50.018;20.010;2023-12-04T12:37:53;99315.84;;;-0.24;100.00
23899;BME280;20544;50.018;20.010;2023-12-04T12:41:11;99309.37;;;-0.31;100.00
23899;BME280;20544;50.018;20.010;2023-12-04T12:44:29;99303.52;;;-0.35;100.00
23899;BME280;20544;50.018;20.010;2023-12-04T12:47:53;99301.98;;;-0.52;100.00
23899;BME280;20544;50.018;20.010;2023-12-04T12:51:11;99305.58;;;-0.67;100.00
23899;BME280;20544;50.018;20.010;2023-12-04T12:54:30;99292.55;;;-0.67;100.00
23899;BME280;20544;50.018;20.010;2023-12-04T12:57:47;99278.92;;;-0.58;100.00
23899;BME280;20544;50.018;20.010;2023-12-04T13:01:04;99278.42;;;-0.50;100.00
23899;BME280;20544;50.018;20.010;2023-12-04T13:04:22;99273.81;;;-0.59;100.00
23899;BME280;20544;50.018;20.010;2023-12-04T13:07:40;99270.92;;;-0.55;100.00
23899;BME280;20544;50.018;20.010;2023-12-04T13:11:00;99271.56;;;-0.51;100.00
23899;BME280;20544;50.018;20.010;2023-12-04T13:14:17;99272.27;;;-0.76;100.00
23899;BME280;20544;50.018;20.010;2023-12-04T13:17:34;99265.75;;;-0.69;100.00
23899;BME280;20544;50.018;20.010;2023-12-04T13:20:51;99261.07;;;-0.64;100.00
23899;BME280;20544;50.018;20.010;2023-12-04T13:24:09;99257.64;;;-0.64;100.00
23899;BME280;20544;50.018;20.010;2023-12-04T13:27:26;99252.86;;;-0.58;100.00
23899;BME280;20544;50.018;20.010;2023-12-04T13:30:43;99250.08;;;-0.55;100.00
23899;BME280;20544;50.018;20.010;2023-12-04T13:34:00;99256.39;;;-0.59;100.00
23899;BME280;20544;50.018;20.010;2023-12-04T13:37:21;99248.72;;;-0.75;100.00
23899;BME280;20544;50.018;20.010;2023-12-04T13:40:37;99244.66;;;-0.79;100.00
23899;BME280;20544;50.018;20.010;2023-12-04T13:43:57;99241.72;;;-0.87;100.00
23899;BME280;20544;50.018;20.010;2023-12-04T13:47:13;99243.58;;;-0.89;100.00
23899;BME280;20544;50.018;20.010;2023-12-04T13:50:30;99242.65;;;-0.88;100.00
23899;BME280;20544;50.018;20.010;2023-12-04T13:53:51;99230.40;;;-1.01;100.00
23899;BME280;20544;50.018;20.010;2023-12-04T13:57:11;99225.30;;;-1.02;100.00
23899;BME280;20544;50.018;20.010;2023-12-04T14:00:35;99231.05;;;-0.97;100.00
23899;BME280;20544;50.018;20.010;2023-12-04T14:03:53;99226.55;;;-0.95;100.00
23899;BME280;20544;50.018;20.010;2023-12-04T14:07:13;99224.70;;;-0.93;100.00
23899;BME280;20544;50.018;20.010;2023-12-04T14:10:31;99228.13;;;-0.92;100.00
23899;BME280;20544;50.018;20.010;2023-12-04T14:13:48;99224.70;;;-0.93;100.00
23899;BME280;20544;50.018;20.010;2023-12-04T14:17:06;99219.77;;;-0.98;100.00
23899;BME280;20544;50.018;20.010;2023-12-04T14:20:23;99210.98;;;-1.09;100.00
23899;BME280;20544;50.018;20.010;2023-12-04T14:23:40;99208.95;;;-1.19;100.00
23899;BME280;20544;50.018;20.010;2023-12-04T14:26:56;99212.96;;;-1.27;100.00
23899;BME280;20544;50.018;20.010;2023-12-04T14:30:15;99204.12;;;-1.25;100.00
23899;BME280;20544;50.018;20.010;2023-12-04T14:33:32;99203.20;;;-1.24;100.00
23899;BME280;20544;50.018;20.010;2023-12-04T14:36:51;99190.17;;;-1.24;100.00
23899;BME280;20544;50.018;20.010;2023-12-04T14:40:11;99190.28;;;-1.25;100.00
23899;BME280;20544;50.018;20.010;2023-12-04T14:43:35;99187.86;;;-1.28;100.00
23899;BME280;20544;50.018;20.010;2023-12-04T14:46:52;99184.43;;;-1.29;100.00
23899;BME280;20544;50.018;20.010;2023-12-04T14:50:10;99182.20;;;-1.35;100.00
23899;BME280;20544;50.018;20.010;2023-12-04T14:53:27;99180.64;;;-1.38;100.00
23899;BME280;20544;50.018;20.010;2023-12-04T14:56:46;99179.62;;;-1.50;100.00
23899;BME280;20544;50.018;20.010;2023-12-04T15:00:17;99183.35;;;-1.54;100.00
23899;BME280;20544;50.018;20.010;2023-12-04T15:03:50;99183.55;;;-1.57;100.00
23899;BME280;20544;50.018;20.010;2023-12-04T15:07:20;99177.70;;;-1.60;100.00
23899;BME280;20544;50.018;20.010;2023-12-04T15:10:50;99178.80;;;-1.65;100.00
23899;BME280;20544;50.018;20.010;2023-12-04T15:14:23;99180.95;;;-1.71;100.00
23899;BME280;20544;50.018;20.010;2023-12-04T15:17:49;99175.57;;;-1.83;100.00
23899;BME280;20544;50.018;20.010;2023-12-04T15:21:08;99171.77;;;-1.91;100.00
23899;BME280;20544;50.018;20.010;2023-12-04T15:24:26;99172.95;;;-1.97;100.00
23899;BME280;20544;50.018;20.010;2023-12-04T15:27:46;99170.82;;;-2.05;100.00
23899;BME280;20544;50.018;20.010;2023-12-04T15:31:09;99179.09;;;-2.13;100.00
23899;BME280;20544;50.018;20.010;2023-12-04T15:34:26;99180.20;;;-2.17;100.00
23899;BME280;20544;50.018;20.010;2023-12-04T15:37:43;99177.97;;;-2.23;100.00
23899;BME280;20544;50.018;20.010;2023-12-04T15:41:01;99179.25;;;-2.30;100.00
23899;BME280;20544;50.018;20.010;2023-12-04T15:44:19;99170.23;;;-2.39;100.00
23899;BME280;20544;50.018;20.010;2023-12-04T15:47:48;99168.09;;;-2.47;100.00
23899;BME280;20544;50.018;20.010;2023-12-04T15:51:09;99154.44;;;-2.50;100.00
23899;BME280;20544;50.018;20.010;2023-12-04T15:54:31;99150.32;;;-2.54;100.00
23899;BME280;20544;50.018;20.010;2023-12-04T15:57:51;99144.47;;;-2.58;100.00
23899;BME280;20544;50.018;20.010;2023-12-04T16:01:22;99155.97;;;-2.62;100.00
23899;BME280;20544;50.018;20.010;2023-12-04T16:04:39;99140.84;;;-2.70;100.00
23899;BME280;20544;50.018;20.010;2023-12-04T16:07:57;99139.34;;;-2.74;100.00
23899;BME280;20544;50.018;20.010;2023-12-04T16:11:14;99139.61;;;-2.79;100.00
23899;BME280;20544;50.018;20.010;2023-12-04T16:14:33;99130.14;;;-2.80;100.00
23899;BME280;20544;50.018;20.010;2023-12-04T16:17:51;99127.13;;;-2.88;100.00
23899;BME280;20544;50.018;20.010;2023-12-04T16:21:08;99118.30;;;-3.00;100.00
23899;BME280;20544;50.018;20.010;2023-12-04T16:24:26;99119.22;;;-3.01;100.00
23899;BME280;20544;50.018;20.010;2023-12-04T16:27:45;99121.81;;;-3.01;100.00
23899;BME280;20544;50.018;20.010;2023-12-04T16:31:07;99124.41;;;-3.01;100.00
23899;BME280;20544;50.018;20.010;2023-12-04T16:34:24;99124.41;;;-3.01;100.00
23899;BME280;20544;50.018;20.010;2023-12-04T16:37:42;99123.59;;;-3.01;100.00
23899;BME280;20544;50.018;20.010;2023-12-04T16:40:59;99127.20;;;-3.04;100.00
23899;BME280;20544;50.018;20.010;2023-12-04T16:44:18;99116.15;;;-3.07;100.00
23899;BME280;20544;50.018;20.010;2023-12-04T16:47:35;99118.99;;;-3.12;100.00
23899;BME280;20544;50.018;20.010;2023-12-04T16:50:52;99116.59;;;-3.15;100.00
23899;BME280;20544;50.018;20.010;2023-12-04T16:54:09;99111.65;;;-3.20;100.00
23899;BME280;20544;50.018;20.010;2023-12-04T16:57:26;99104.20;;;-3.26;100.00
23899;BME280;20544;50.018;20.010;2023-12-04T17:00:43;99098.44;;;-3.31;100.00
23899;BME280;20544;50.018;20.010;2023-12-04T17:04:00;99095.84;;;-3.31;100.00